sensor_id;sensor_type;location;lat;lon;timestamp;temperature;humidity
51579;DHT22;47998;53.242;6.386;2023-01-10T00:00:32;3.30;99.90
51579;DHT22;47998;53.242;6.386;2023-01-10T00:03:05;3.40;99.90
51579;DHT22;47998;53.242;6.386;2023-01-10T00:05:36;3.30;99.90
51579;DHT22;47998;53.242;6.386;2023-01-10T00:08:02;3.50;99.90
51579;DHT22;47998;53.242;6.386;2023-01-10T00:10:29;3.70;99.90
51579;DHT22;47998;53.242;6.386;2023-01-10T00:12:55;4.00;99.90
51579;DHT22;47998;53.242;6.386;2023-01-10T00:15:39;4.20;99.90
51579;DHT22;47998;53.242;6.386;2023-01-10T00:18:05;4.50;99.90
51579;DHT22;47998;53.242;6.386;2023-01-10T00:20:30;4.60;99.90
51579;DHT22;47998;53.242;6.386;2023-01-10T00:22:56;4.90;99.90
51579;DHT22;47998;53.242;6.386;2023-01-10T00:25:23;5.10;99.90
51579;DHT22;47998;53.242;6.386;2023-01-10T00:27:49;5.20;99.90
51579;DHT22;47998;53.242;6.386;2023-01-10T00:30:27;5.20;99.90
51579;DHT22;47998;53.242;6.386;2023-01-10T00:32:53;5.20;99.90
51579;DHT22;47998;53.242;6.386;2023-01-10T00:35:21;5.20;99.90
51579;DHT22;47998;53.242;6.386;2023-01-10T00:37:47;5.10;99.90
51579;DHT22;47998;53.242;6.386;2023-01-10T00:40:13;5.10;99.90
51579;DHT22;47998;53.242;6.386;2023-01-10T00:42:38;5.10;99.90
51579;DHT22;47998;53.242;6.386;2023-01-10T00:45:23;5.10;99.90
51579;DHT22;47998;53.242;6.386;2023-01-10T00:47:51;5.20;99.90
51579;DHT22;47998;53.242;6.386;2023-01-10T00:50:17;5.30;99.90
51579;DHT22;47998;53.242;6.386;2023-01-10T00:52:43;5.40;99.90
51579;DHT22;47998;53.242;6.386;2023-01-10T00:55:09;5.40;99.90
51579;DHT22;47998;53.242;6.386;2023-01-10T00:57:34;5.50;99.90
51579;DHT22;47998;53.242;6.386;2023-01-10T01:00:00;5.60;99.90
51579;DHT22;47998;53.242;6.386;2023-01-10T01:02:26;5.60;99.90
51579;DHT22;47998;53.242;6.386;2023-01-10T01:04:52;5.60;99.90
51579;DHT22;47998;53.242;6.386;2023-01-10T01:07:17;5.50;99.90
51579;DHT22;47998;53.242;6.386;2023-01-10T01:09:43;5.50;99.90
51579;DHT22;47998;53.242;6.386;2023-01-10T01:12:27;5.50;99.90
51579;DHT22;47998;53.242;6.386;2023-01-10T01:14:53;5.50;99.90
51579;DHT22;47998;53.242;6.386;2023-01-10T01:17:18;5.50;99.90
51579;DHT22;47998;53.242;6.386;2023-01-10T01:19:44;5.40;99.90
51579;DHT22;47998;53.242;6.386;2023-01-10T01:22:10;5.50;99.90
51579;DHT22;47998;53.242;6.386;2023-01-10T01:24:35;5.40;99.90
51579;DHT22;47998;53.242;6.386;2023-01-10T01:27:01;5.40;99.90
51579;DHT22;47998;53.242;6.386;2023-01-10T01:29:27;5.30;99.90
51579;DHT22;47998;53.242;6.386;2023-01-10T01:31:52;5.30;99.90
51579;DHT22;47998;53.242;6.386;2023-01-10T01:34:18;5.20;99.90
51579;DHT22;47998;53.242;6.386;2023-01-10T01:36:46;5.20;99.90
51579;DHT22;47998;53.242;6.386;2023-01-10T01:39:11;5.10;99.90
51579;DHT22;47998;53.242;6.386;2023-01-10T01:41:37;5.10;99.90
51579;DHT22;47998;53.242;6.386;2023-01-10T01:44:21;5.00;99.90
51579;DHT22;47998;53.242;6.386;2023-01-10T01:47:05;4.90;99.90
51579;DHT22;47998;53.242;6.386;2023-01-10T01:49:37;4.70;99.90
51579;DHT22;47998;53.242;6.386;2023-01-10T01:52:10;4.70;99.90
51579;DHT22;47998;53.242;6.386;2023-01-10T01:54:37;4.70;99.90
51579;DHT22;47998;53.242;6.386;2023-01-10T01:57:06;4.80;99.90
51579;DHT22;47998;53.242;6.386;2023-01-10T01:59:43;5.00;99.90
51579;DHT22;47998;53.242;6.386;2023-01-10T02:02:18;5.20;99.90
51579;DHT22;47998;53.242;6.386;2023-01-10T02:05:10;5.50;99.90
51579;DHT22;47998;53.242;6.386;2023-01-10T02:07:41;5.50;99.90
51579;DHT22;47998;53.242;6.386;2023-01-10T02:13:02;5.80;99.90
51579;DHT22;47998;53.242;6.386;2023-01-10T02:15:28;5.70;99.90
51579;DHT22;47998;53.242;6.386;2023-01-10T02:17:55;5.70;99.90
51579;DHT22;47998;53.242;6.386;2023-01-10T02:20:22;5.70;99.90
51579;DHT22;47998;53.242;6.386;2023-01-10T02:23:18;5.70;99.90
51579;DHT22;47998;53.242;6.386;2023-01-10T02:36:34;5.50;8.30
51579;DHT22;47998;53.242;6.386;2023-01-10T02:39:23;5.40;64.40
51579;DHT22;47998;53.242;6.386;2023-01-10T02:42:06;5.40;94.20
51579;DHT22;47998;53.242;6.386;2023-01-10T02:44:44;5.40;99.90
51579;DHT22;47998;53.242;6.386;2023-01-10T02:47:14;5.40;99.90
51579;DHT22;47998;53.242;6.386;2023-01-10T02:49:45;5.40;99.90
51579;DHT22;47998;53.242;6.386;2023-01-10T02:52:17;5.30;99.90
51579;DHT22;47998;53.242;6.386;2023-01-10T02:54:44;5.40;99.90
51579;DHT22;47998;53.242;6.386;2023-01-10T03:08:48;5.30;99.90
51579;DHT22;47998;53.242;6.386;2023-01-10T03:11:08;5.40;99.90
51579;DHT22;47998;53.242;6.386;2023-01-10T03:13:52;5.40;99.90
51579;DHT22;47998;53.242;6.386;2023-01-10T03:16:19;5.30;99.90
51579;DHT22;47998;53.242;6.386;2023-01-10T03:18:52;5.30;99.90
51579;DHT22;47998;53.242;6.386;2023-01-10T03:21:19;5.40;99.90
51579;DHT22;47998;53.242;6.386;2023-01-10T03:23:47;5.50;99.90
51579;DHT22;47998;53.242;6.386;2023-01-10T03:26:14;5.40;99.90
51579;DHT22;47998;53.242;6.386;2023-01-10T03:28:48;5.50;99.90
51579;DHT22;47998;53.242;6.386;2023-01-10T03:31:21;5.60;99.90
51579;DHT22;47998;53.242;6.386;2023-01-10T03:33:47;5.60;99.90
51579;DHT22;47998;53.242;6.386;2023-01-10T03:36:29;5.60;99.90
51579;DHT22;47998;53.242;6.386;2023-01-10T03:39:18;5.70;99.90
51579;DHT22;47998;53.242;6.386;2023-01-10T03:41:56;5.70;99.90
51579;DHT22;47998;53.242;6.386;2023-01-10T03:44:40;5.70;99.90
51579;DHT22;47998;53.242;6.386;2023-01-10T03:47:37;5.70;99.90
51579;DHT22;47998;53.242;6.386;2023-01-10T03:50:09;5.70;99.90
51579;DHT22;47998;53.242;6.386;2023-01-10T03:52:36;5.70;99.90
51579;DHT22;47998;53.242;6.386;2023-01-10T03:55:04;5.80;99.90
51579;DHT22;47998;53.242;6.386;2023-01-10T03:57:31;5.80;99.90
51579;DHT22;47998;53.242;6.386;2023-01-10T03:59:58;5.80;99.90
51579;DHT22;47998;53.242;6.386;2023-01-10T04:02:29;5.80;99.90
51579;DHT22;47998;53.242;6.386;2023-01-10T04:04:56;5.60;99.90
51579;DHT22;47998;53.242;6.386;2023-01-10T04:07:22;5.50;99.90
51579;DHT22;47998;53.242;6.386;2023-01-10T04:09:48;5.50;99.90
51579;DHT22;47998;53.242;6.386;2023-01-10T04:12:13;5.40;99.90
51579;DHT22;47998;53.242;6.386;2023-01-10T04:14:40;5.40;99.90
51579;DHT22;47998;53.242;6.386;2023-01-10T04:17:06;5.40;99.90
51579;DHT22;47998;53.242;6.386;2023-01-10T04:19:32;5.40;99.90
51579;DHT22;47998;53.242;6.386;2023-01-10T04:21:57;5.40;99.90
51579;DHT22;47998;53.242;6.386;2023-01-10T04:24:23;5.40;99.90
51579;DHT22;47998;53.242;6.386;2023-01-10T04:26:49;5.30;99.90
51579;DHT22;47998;53.242;6.386;2023-01-10T04:29:14;5.30;99.90
51579;DHT22;47998;53.242;6.386;2023-01-10T04:31:41;5.30;99.90
51579;DHT22;47998;53.242;6.386;2023-01-10T04:34:08;5.30;99.90
51579;DHT22;47998;53.242;6.386;2023-01-10T04:36:34;5.30;99.90
51579;DHT22;47998;53.242;6.386;2023-01-10T04:39:01;5.30;99.90
51579;DHT22;47998;53.242;6.386;2023-01-10T04:41:26;5.40;99.90
51579;DHT22;47998;53.242;6.386;2023-01-10T04:43:52;5.50;99.90
51579;DHT22;47998;53.242;6.386;2023-01-10T04:46:18;5.60;99.90
51579;DHT22;47998;53.242;6.386;2023-01-10T04:48:43;5.60;99.90
51579;DHT22;47998;53.242;6.386;2023-01-10T04:51:09;5.60;99.90
51579;DHT22;47998;53.242;6.386;2023-01-10T04:53:35;5.60;99.90
51579;DHT22;47998;53.242;6.386;2023-01-10T04:56:02;5.60;99.90
51579;DHT22;47998;53.242;6.386;2023-01-10T04:58:28;5.60;99.90
51579;DHT22;47998;53.242;6.386;2023-01-10T05:00:54;5.60;99.90
51579;DHT22;47998;53.242;6.386;2023-01-10T05:03:20;5.70;99.90
51579;DHT22;47998;53.242;6.386;2023-01-10T05:05:45;5.80;99.90
51579;DHT22;47998;53.242;6.386;2023-01-10T05:08:11;5.80;99.90
51579;DHT22;47998;53.242;6.386;2023-01-10T05:10:37;5.70;99.90
51579;DHT22;47998;53.242;6.386;2023-01-10T05:13:03;5.80;99.90
51579;DHT22;47998;53.242;6.386;2023-01-10T05:15:29;5.70;99.90
51579;DHT22;47998;53.242;6.386;2023-01-10T05:17:59;5.70;99.90
51579;DHT22;47998;53.242;6.386;2023-01-10T05:20:25;5.70;99.90
51579;DHT22;47998;53.242;6.386;2023-01-10T05:22:51;5.70;99.90
51579;DHT22;47998;53.242;6.386;2023-01-10T05:25:16;5.80;99.90
51579;DHT22;47998;53.242;6.386;2023-01-10T05:27:42;5.70;99.90
51579;DHT22;47998;53.242;6.386;2023-01-10T05:30:12;5.70;99.90
51579;DHT22;47998;53.242;6.386;2023-01-10T05:32:38;5.70;99.90
51579;DHT22;47998;53.242;6.386;2023-01-10T05:35:04;5.70;99.90
51579;DHT22;47998;53.242;6.386;2023-01-10T05:37:30;5.70;99.90
51579;DHT22;47998;53.242;6.386;2023-01-10T05:39:55;5.70;99.90
51579;DHT22;47998;53.242;6.386;2023-01-10T05:42:21;5.70;99.90
51579;DHT22;47998;53.242;6.386;2023-01-10T05:44:47;5.70;99.90
51579;DHT22;47998;53.242;6.386;2023-01-10T05:47:12;5.80;99.90
51579;DHT22;47998;53.242;6.386;2023-01-10T05:49:38;5.70;99.90
51579;DHT22;47998;53.242;6.386;2023-01-10T05:52:04;5.70;99.90
51579;DHT22;47998;53.242;6.386;2023-01-10T05:54:30;5.70;99.90
51579;DHT22;47998;53.242;6.386;2023-01-10T05:56:55;5.60;99.90
51579;DHT22;47998;53.242;6.386;2023-01-10T05:59:21;5.50;99.90
51579;DHT22;47998;53.242;6.386;2023-01-10T06:01:47;5.60;99.90
51579;DHT22;47998;53.242;6.386;2023-01-10T06:04:13;5.70;99.90
51579;DHT22;47998;53.242;6.386;2023-01-10T06:06:39;5.60;99.90
51579;DHT22;47998;53.242;6.386;2023-01-10T06:09:05;5.70;99.90
51579;DHT22;47998;53.242;6.386;2023-01-10T06:11:30;5.60;99.90
51579;DHT22;47998;53.242;6.386;2023-01-10T06:14:01;5.50;99.90
51579;DHT22;47998;53.242;6.386;2023-01-10T06:16:27;5.50;99.90
51579;DHT22;47998;53.242;6.386;2023-01-10T06:18:52;5.40;99.90
51579;DHT22;47998;53.242;6.386;2023-01-10T06:21:18;5.40;99.90
51579;DHT22;47998;53.242;6.386;2023-01-10T06:23:44;5.40;99.90
51579;DHT22;47998;53.242;6.386;2023-01-10T06:26:10;5.30;99.90
51579;DHT22;47998;53.242;6.386;2023-01-10T06:28:36;5.30;99.90
51579;DHT22;47998;53.242;6.386;2023-01-10T06:31:02;5.30;99.90
51579;DHT22;47998;53.242;6.386;2023-01-10T06:33:27;5.20;99.90
51579;DHT22;47998;53.242;6.386;2023-01-10T06:35:53;5.20;99.90
51579;DHT22;47998;53.242;6.386;2023-01-10T06:38:19;5.10;99.90
51579;DHT22;47998;53.242;6.386;2023-01-10T06:40:45;5.00;99.90
51579;DHT22;47998;53.242;6.386;2023-01-10T06:43:10;4.90;99.90
51579;DHT22;47998;53.242;6.386;2023-01-10T06:45:36;5.00;99.90
51579;DHT22;47998;53.242;6.386;2023-01-10T06:48:02;5.00;99.90
51579;DHT22;47998;53.242;6.386;2023-01-10T06:50:28;5.00;99.90
51579;DHT22;47998;53.242;6.386;2023-01-10T06:52:58;4.90;99.90
51579;DHT22;47998;53.242;6.386;2023-01-10T06:55:25;4.80;99.90
51579;DHT22;47998;53.242;6.386;2023-01-10T06:57:58;4.70;99.90
51579;DHT22;47998;53.242;6.386;2023-01-10T07:00:24;4.70;99.90
51579;DHT22;47998;53.242;6.386;2023-01-10T07:02:52;4.50;99.90
51579;DHT22;47998;53.242;6.386;2023-01-10T07:05:19;4.50;99.90
51579;DHT22;47998;53.242;6.386;2023-01-10T07:07:45;4.70;99.90
51579;DHT22;47998;53.242;6.386;2023-01-10T07:10:11;4.70;99.90
51579;DHT22;47998;53.242;6.386;2023-01-10T07:12:37;4.80;99.90
51579;DHT22;47998;53.242;6.386;2023-01-10T07:15:03;5.00;99.90
51579;DHT22;47998;53.242;6.386;2023-01-10T07:17:29;5.10;99.90
51579;DHT22;47998;53.242;6.386;2023-01-10T07:19:55;5.10;99.90
51579;DHT22;47998;53.242;6.386;2023-01-10T07:22:21;5.20;99.90
51579;DHT22;47998;53.242;6.386;2023-01-10T07:24:46;5.20;99.90
51579;DHT22;47998;53.242;6.386;2023-01-10T07:27:12;5.30;99.90
51579;DHT22;47998;53.242;6.386;2023-01-10T07:29:38;5.30;99.90
51579;DHT22;47998;53.242;6.386;2023-01-10T07:32:05;5.30;99.90
51579;DHT22;47998;53.242;6.386;2023-01-10T07:34:31;5.30;99.90
51579;DHT22;47998;53.242;6.386;2023-01-10T07:36:57;5.30;99.90
51579;DHT22;47998;53.242;6.386;2023-01-10T07:39:22;5.30;99.90
51579;DHT22;47998;53.242;6.386;2023-01-10T07:41:49;5.30;99.90
51579;DHT22;47998;53.242;6.386;2023-01-10T07:44:15;5.20;99.90
51579;DHT22;47998;53.242;6.386;2023-01-10T07:46:41;5.30;99.90
51579;DHT22;47998;53.242;6.386;2023-01-10T07:49:07;5.30;99.90
51579;DHT22;47998;53.242;6.386;2023-01-10T07:51:33;5.40;99.90
51579;DHT22;47998;53.242;6.386;2023-01-10T07:53:58;5.50;99.90
51579;DHT22;47998;53.242;6.386;2023-01-10T07:56:24;5.60;99.90
51579;DHT22;47998;53.242;6.386;2023-01-10T07:58:50;5.70;99.90
51579;DHT22;47998;53.242;6.386;2023-01-10T08:01:16;5.70;99.90
51579;DHT22;47998;53.242;6.386;2023-01-10T08:03:41;5.50;99.90
51579;DHT22;47998;53.242;6.386;2023-01-10T08:06:08;5.50;99.90
51579;DHT22;47998;53.242;6.386;2023-01-10T08:08:37;5.40;99.90
51579;DHT22;47998;53.242;6.386;2023-01-10T08:11:03;5.30;99.90
51579;DHT22;47998;53.242;6.386;2023-01-10T08:13:30;5.20;99.90
51579;DHT22;47998;53.242;6.386;2023-01-10T08:15:56;5.20;99.90
51579;DHT22;47998;53.242;6.386;2023-01-10T08:18:23;5.10;99.90
51579;DHT22;47998;53.242;6.386;2023-01-10T08:20:50;5.00;99.90
51579;DHT22;47998;53.242;6.386;2023-01-10T08:23:17;5.00;99.90
51579;DHT22;47998;53.242;6.386;2023-01-10T08:25:43;5.00;99.90
51579;DHT22;47998;53.242;6.386;2023-01-10T08:28:09;5.00;99.90
51579;DHT22;47998;53.242;6.386;2023-01-10T08:30:35;5.10;99.90
51579;DHT22;47998;53.242;6.386;2023-01-10T08:33:03;5.00;99.90
51579;DHT22;47998;53.242;6.386;2023-01-10T08:35:29;5.00;99.90
51579;DHT22;47998;53.242;6.386;2023-01-10T08:37:58;5.10;99.90
51579;DHT22;47998;53.242;6.386;2023-01-10T08:40:25;5.10;99.90
51579;DHT22;47998;53.242;6.386;2023-01-10T08:43:02;5.10;99.90
51579;DHT22;47998;53.242;6.386;2023-01-10T08:45:28;5.10;99.90
51579;DHT22;47998;53.242;6.386;2023-01-10T08:47:54;5.10;99.90
51579;DHT22;47998;53.242;6.386;2023-01-10T08:50:21;5.20;99.90
51579;DHT22;47998;53.242;6.386;2023-01-10T08:52:46;5.20;99.90
51579;DHT22;47998;53.242;6.386;2023-01-10T08:55:12;5.30;99.90
51579;DHT22;47998;53.242;6.386;2023-01-10T08:57:38;5.40;99.90
51579;DHT22;47998;53.242;6.386;2023-01-10T09:00:04;5.40;99.90
51579;DHT22;47998;53.242;6.386;2023-01-10T09:02:30;5.40;99.90
51579;DHT22;47998;53.242;6.386;2023-01-10T09:04:56;5.50;99.90
51579;DHT22;47998;53.242;6.386;2023-01-10T09:07:22;5.60;99.90
51579;DHT22;47998;53.242;6.386;2023-01-10T09:09:48;5.60;99.90
51579;DHT22;47998;53.242;6.386;2023-01-10T09:12:14;5.70;99.90
51579;DHT22;47998;53.242;6.386;2023-01-10T09:14:58;5.90;99.90
51579;DHT22;47998;53.242;6.386;2023-01-10T09:17:24;6.00;99.90
51579;DHT22;47998;53.242;6.386;2023-01-10T09:19:49;6.10;99.90
51579;DHT22;47998;53.242;6.386;2023-01-10T09:22:15;6.20;99.90
51579;DHT22;47998;53.242;6.386;2023-01-10T09:24:41;6.20;99.90
51579;DHT22;47998;53.242;6.386;2023-01-10T09:27:09;6.10;99.90
51579;DHT22;47998;53.242;6.386;2023-01-10T09:29:35;6.00;99.90
51579;DHT22;47998;53.242;6.386;2023-01-10T09:32:01;6.00;99.90
51579;DHT22;47998;53.242;6.386;2023-01-10T09:34:27;6.00;99.90
51579;DHT22;47998;53.242;6.386;2023-01-10T09:36:53;6.00;99.90
51579;DHT22;47998;53.242;6.386;2023-01-10T09:39:19;5.90;99.90
51579;DHT22;47998;53.242;6.386;2023-01-10T09:41:58;6.00;99.90
51579;DHT22;47998;53.242;6.386;2023-01-10T09:44:52;6.00;99.90
51579;DHT22;47998;53.242;6.386;2023-01-10T09:47:40;6.00;99.90
51579;DHT22;47998;53.242;6.386;2023-01-10T09:50:42;6.00;99.90
51579;DHT22;47998;53.242;6.386;2023-01-10T09:53:21;6.00;99.90
51579;DHT22;47998;53.242;6.386;2023-01-10T09:55:59;6.00;99.90
51579;DHT22;47998;53.242;6.386;2023-01-10T09:58:27;6.00;99.90
51579;DHT22;47998;53.242;6.386;2023-01-10T10:03:57;6.10;99.90
51579;DHT22;47998;53.242;6.386;2023-01-10T10:06:25;6.20;99.90
51579;DHT22;47998;53.242;6.386;2023-01-10T10:08:51;6.20;99.90
51579;DHT22;47998;53.242;6.386;2023-01-10T10:28:18;6.40;99.90
51579;DHT22;47998;53.242;6.386;2023-01-10T10:36:16;6.40;99.90
51579;DHT22;47998;53.242;6.386;2023-01-10T10:38:45;6.50;99.90
51579;DHT22;47998;53.242;6.386;2023-01-10T10:41:22;6.50;99.90
51579;DHT22;47998;53.242;6.386;2023-01-10T10:43:53;6.50;99.90
51579;DHT22;47998;53.242;6.386;2023-01-10T10:46:20;6.60;99.90
51579;DHT22;47998;53.242;6.386;2023-01-10T10:48:56;6.60;99.90
51579;DHT22;47998;53.242;6.386;2023-01-10T10:51:33;6.60;99.90
51579;DHT22;47998;53.242;6.386;2023-01-10T10:54:03;6.70;99.90
51579;DHT22;47998;53.242;6.386;2023-01-10T10:56:31;6.70;99.90
51579;DHT22;47998;53.242;6.386;2023-01-10T10:58:58;6.70;90.40
51579;DHT22;47998;53.242;6.386;2023-01-10T11:01:25;6.80;95.60
51579;DHT22;47998;53.242;6.386;2023-01-10T11:03:55;6.80;1.00
51579;DHT22;47998;53.242;6.386;2023-01-10T11:06:27;6.80;23.70
51579;DHT22;47998;53.242;6.386;2023-01-10T11:08:59;6.80;1.00
51579;DHT22;47998;53.242;6.386;2023-01-10T11:11:29;6.80;15.90
51579;DHT22;47998;53.242;6.386;2023-01-10T11:13:58;6.80;11.10
51579;DHT22;47998;53.242;6.386;2023-01-10T11:16:28;6.80;1.00
51579;DHT22;47998;53.242;6.386;2023-01-10T11:19:14;6.80;1.00
51579;DHT22;47998;53.242;6.386;2023-01-10T11:22:05;6.80;1.00
51579;DHT22;47998;53.242;6.386;2023-01-10T11:24:53;6.70;1.00
51579;DHT22;47998;53.242;6.386;2023-01-10T11:27:24;6.80;1.00
51579;DHT22;47998;53.242;6.386;2023-01-10T11:29:56;6.80;2.00
51579;DHT22;47998;53.242;6.386;2023-01-10T11:34:57;6.80;1.00
51579;DHT22;47998;53.242;6.386;2023-01-10T11:37:29;6.90;1.00
51579;DHT22;47998;53.242;6.386;2023-01-10T11:42:41;6.80;1.00
51579;DHT22;47998;53.242;6.386;2023-01-10T11:47:54;6.80;37.00
51579;DHT22;47998;53.242;6.386;2023-01-10T11:50:24;6.90;1.00
51579;DHT22;47998;53.242;6.386;2023-01-10T11:52:51;6.80;44.90
51579;DHT22;47998;53.242;6.386;2023-01-10T11:55:19;6.80;40.90
51579;DHT22;47998;53.242;6.386;2023-01-10T11:57:54;6.90;5.00
51579;DHT22;47998;53.242;6.386;2023-01-10T12:00:21;6.80;1.00
51579;DHT22;47998;53.242;6.386;2023-01-10T12:02:47;6.80;1.00
51579;DHT22;47998;53.242;6.386;2023-01-10T12:05:19;6.70;1.00
51579;DHT22;47998;53.242;6.386;2023-01-10T12:08:00;6.80;1.00
51579;DHT22;47998;53.242;6.386;2023-01-10T12:10:31;6.70;1.00
51579;DHT22;47998;53.242;6.386;2023-01-10T12:13:08;6.70;1.00
51579;DHT22;47998;53.242;6.386;2023-01-10T12:15:37;6.70;1.00
51579;DHT22;47998;53.242;6.386;2023-01-10T12:18:04;6.70;1.00
51579;DHT22;47998;53.242;6.386;2023-01-10T12:20:34;6.60;1.00
51579;DHT22;47998;53.242;6.386;2023-01-10T12:23:12;6.50;1.00
51579;DHT22;47998;53.242;6.386;2023-01-10T12:25:42;6.60;1.00
51579;DHT22;47998;53.242;6.386;2023-01-10T12:28:20;6.50;1.00
51579;DHT22;47998;53.242;6.386;2023-01-10T12:30:48;6.60;1.00
51579;DHT22;47998;53.242;6.386;2023-01-10T12:33:40;6.50;1.00
51579;DHT22;47998;53.242;6.386;2023-01-10T12:39:31;6.50;1.00
51579;DHT22;47998;53.242;6.386;2023-01-10T12:45:12;6.50;1.00
51579;DHT22;47998;53.242;6.386;2023-01-10T12:48:21;6.50;1.00
51579;DHT22;47998;53.242;6.386;2023-01-10T12:51:03;6.50;1.00
51579;DHT22;47998;53.242;6.386;2023-01-10T12:53:45;6.50;1.00
51579;DHT22;47998;53.242;6.386;2023-01-10T12:56:14;6.50;1.00
51579;DHT22;47998;53.242;6.386;2023-01-10T12:58:42;6.50;1.00
51579;DHT22;47998;53.242;6.386;2023-01-10T13:01:13;6.50;1.00
51579;DHT22;47998;53.242;6.386;2023-01-10T13:03:40;6.50;99.90
51579;DHT22;47998;53.242;6.386;2023-01-10T13:06:06;6.50;99.90
51579;DHT22;47998;53.242;6.386;2023-01-10T13:08:34;6.40;99.90
51579;DHT22;47998;53.242;6.386;2023-01-10T13:11:01;6.40;99.90
51579;DHT22;47998;53.242;6.386;2023-01-10T13:13:41;6.40;99.90
51579;DHT22;47998;53.242;6.386;2023-01-10T13:16:41;6.40;99.90
51579;DHT22;47998;53.242;6.386;2023-01-10T13:21:35;6.40;99.90
51579;DHT22;47998;53.242;6.386;2023-01-10T13:24:18;6.40;99.90
51579;DHT22;47998;53.242;6.386;2023-01-10T13:26:57;6.40;99.90
51579;DHT22;47998;53.242;6.386;2023-01-10T13:29:44;6.40;99.90
51579;DHT22;47998;53.242;6.386;2023-01-10T13:34:43;6.40;99.90
51579;DHT22;47998;53.242;6.386;2023-01-10T13:37:12;6.40;99.90
51579;DHT22;47998;53.242;6.386;2023-01-10T13:39:50;6.40;99.90
51579;DHT22;47998;53.242;6.386;2023-01-10T13:42:36;6.40;99.90
51579;DHT22;47998;53.242;6.386;2023-01-10T13:45:21;6.40;99.90
51579;DHT22;47998;53.242;6.386;2023-01-10T13:52:48;6.30;99.90
51579;DHT22;47998;53.242;6.386;2023-01-10T13:57:50;6.30;99.90
51579;DHT22;47998;53.242;6.386;2023-01-10T14:00:47;6.20;99.90
51579;DHT22;47998;53.242;6.386;2023-01-10T14:03:45;6.20;99.90
51579;DHT22;47998;53.242;6.386;2023-01-10T14:09:02;6.10;99.90
51579;DHT22;47998;53.242;6.386;2023-01-10T14:11:51;6.20;99.90
51579;DHT22;47998;53.242;6.386;2023-01-10T14:14:25;6.10;99.90
51579;DHT22;47998;53.242;6.386;2023-01-10T14:16:54;6.00;99.90
51579;DHT22;47998;53.242;6.386;2023-01-10T14:19:31;6.10;99.90
51579;DHT22;47998;53.242;6.386;2023-01-10T14:22:00;6.20;99.90
51579;DHT22;47998;53.242;6.386;2023-01-10T14:24:34;6.10;99.90
51579;DHT22;47998;53.242;6.386;2023-01-10T14:27:02;6.10;99.90
51579;DHT22;47998;53.242;6.386;2023-01-10T14:29:31;6.10;99.90
51579;DHT22;47998;53.242;6.386;2023-01-10T14:31:59;6.10;99.90
51579;DHT22;47998;53.242;6.386;2023-01-10T14:34:28;6.10;99.90
51579;DHT22;47998;53.242;6.386;2023-01-10T14:36:58;6.10;99.90
51579;DHT22;47998;53.242;6.386;2023-01-10T14:39:26;6.10;99.90
51579;DHT22;47998;53.242;6.386;2023-01-10T14:41:57;6.10;1.00
51579;DHT22;47998;53.242;6.386;2023-01-10T14:44:31;6.10;1.00
51579;DHT22;47998;53.242;6.386;2023-01-10T14:47:00;6.10;1.00
51579;DHT22;47998;53.242;6.386;2023-01-10T14:49:30;6.10;1.00
51579;DHT22;47998;53.242;6.386;2023-01-10T14:52:18;6.10;1.00
51579;DHT22;47998;53.242;6.386;2023-01-10T14:54:45;6.10;1.00
51579;DHT22;47998;53.242;6.386;2023-01-10T14:57:20;6.10;1.00
51579;DHT22;47998;53.242;6.386;2023-01-10T14:59:47;6.10;1.00
51579;DHT22;47998;53.242;6.386;2023-01-10T15:02:22;6.10;99.90
51579;DHT22;47998;53.242;6.386;2023-01-10T15:04:55;6.10;1.00
51579;DHT22;47998;53.242;6.386;2023-01-10T15:07:23;6.10;8.10
51579;DHT22;47998;53.242;6.386;2023-01-10T15:09:51;6.00;22.80
51579;DHT22;47998;53.242;6.386;2023-01-10T15:12:19;6.00;16.80
51579;DHT22;47998;53.242;6.386;2023-01-10T15:14:47;6.00;33.20
51579;DHT22;47998;53.242;6.386;2023-01-10T15:17:16;6.00;99.90
51579;DHT22;47998;53.242;6.386;2023-01-10T15:19:45;6.00;38.10
51579;DHT22;47998;53.242;6.386;2023-01-10T15:22:31;6.00;99.90
51579;DHT22;47998;53.242;6.386;2023-01-10T15:25:25;6.00;99.90
51579;DHT22;47998;53.242;6.386;2023-01-10T15:27:52;6.00;99.90
51579;DHT22;47998;53.242;6.386;2023-01-10T15:30:24;6.00;99.90
51579;DHT22;47998;53.242;6.386;2023-01-10T15:32:53;6.00;1.00
51579;DHT22;47998;53.242;6.386;2023-01-10T15:35:22;6.00;4.90
51579;DHT22;47998;53.242;6.386;2023-01-10T15:37:53;6.00;1.00
51579;DHT22;47998;53.242;6.386;2023-01-10T15:40:22;6.10;1.00
51579;DHT22;47998;53.242;6.386;2023-01-10T15:42:48;6.10;1.00
51579;DHT22;47998;53.242;6.386;2023-01-10T15:45:32;6.10;99.90
51579;DHT22;47998;53.242;6.386;2023-01-10T15:48:02;6.20;1.00
51579;DHT22;47998;53.242;6.386;2023-01-10T15:50:37;6.10;1.00
51579;DHT22;47998;53.242;6.386;2023-01-10T15:53:08;6.10;1.00
51579;DHT22;47998;53.242;6.386;2023-01-10T16:00:49;6.10;1.00
51579;DHT22;47998;53.242;6.386;2023-01-10T16:05:55;6.10;99.90
51579;DHT22;47998;53.242;6.386;2023-01-10T16:08:26;6.00;99.90
51579;DHT22;47998;53.242;6.386;2023-01-10T16:10:57;6.00;99.90
51579;DHT22;47998;53.242;6.386;2023-01-10T16:13:24;6.00;99.90
51579;DHT22;47998;53.242;6.386;2023-01-10T16:15:54;6.00;99.90
51579;DHT22;47998;53.242;6.386;2023-01-10T16:18:20;6.00;1.00
51579;DHT22;47998;53.242;6.386;2023-01-10T16:20:48;5.90;1.00
51579;DHT22;47998;53.242;6.386;2023-01-10T16:23:17;5.90;1.00
51579;DHT22;47998;53.242;6.386;2023-01-10T16:25:46;5.80;73.60
51579;DHT22;47998;53.242;6.386;2023-01-10T16:28:14;5.80;91.60
51579;DHT22;47998;53.242;6.386;2023-01-10T16:30:41;5.70;99.90
51579;DHT22;47998;53.242;6.386;2023-01-10T16:33:20;5.70;99.90
51579;DHT22;47998;53.242;6.386;2023-01-10T16:35:56;5.70;99.90
51579;DHT22;47998;53.242;6.386;2023-01-10T16:38:23;5.70;99.90
51579;DHT22;47998;53.242;6.386;2023-01-10T16:43:17;5.60;99.90
51579;DHT22;47998;53.242;6.386;2023-01-10T16:45:51;5.60;99.90
51579;DHT22;47998;53.242;6.386;2023-01-10T16:48:19;5.60;99.90
51579;DHT22;47998;53.242;6.386;2023-01-10T16:50:46;5.50;99.90
51579;DHT22;47998;53.242;6.386;2023-01-10T16:53:14;5.50;99.90
51579;DHT22;47998;53.242;6.386;2023-01-10T16:55:45;5.50;99.90
51579;DHT22;47998;53.242;6.386;2023-01-10T16:58:12;5.40;99.90
51579;DHT22;47998;53.242;6.386;2023-01-10T17:00:39;5.40;99.90
51579;DHT22;47998;53.242;6.386;2023-01-10T17:03:10;5.40;99.90
51579;DHT22;47998;53.242;6.386;2023-01-10T17:05:37;5.40;99.90
51579;DHT22;47998;53.242;6.386;2023-01-10T17:08:04;5.40;99.90
51579;DHT22;47998;53.242;6.386;2023-01-10T17:10:32;5.40;99.90
51579;DHT22;47998;53.242;6.386;2023-01-10T17:12:59;5.40;99.90
51579;DHT22;47998;53.242;6.386;2023-01-10T17:15:26;5.40;99.90
51579;DHT22;47998;53.242;6.386;2023-01-10T17:17:53;5.40;99.90
51579;DHT22;47998;53.242;6.386;2023-01-10T17:20:19;5.40;99.90
51579;DHT22;47998;53.242;6.386;2023-01-10T17:22:44;5.50;99.90
51579;DHT22;47998;53.242;6.386;2023-01-10T17:25:13;5.50;99.90
51579;DHT22;47998;53.242;6.386;2023-01-10T17:27:40;5.50;99.90
51579;DHT22;47998;53.242;6.386;2023-01-10T17:30:06;5.50;99.90
51579;DHT22;47998;53.242;6.386;2023-01-10T17:32:33;5.50;99.90
51579;DHT22;47998;53.242;6.386;2023-01-10T17:34:58;5.50;99.90